Hlavní strana
METAR-TAF:

METAR-TAF

Letiště :

Jendouba, Tunisko

zeměpisná šířka: 36-29N, zeměpisná délka: 008-48E, výška: 143 m

Aktuální stav počasí

Zpráva byla vytvořena před 12 minutami, v 22:00 UTC
vítr z různých směrů 2 kt
Teplota 9°C
Vlhkost vzduchu 87%
Tlak 1024 hPa
Viditelnost: 8000 m

METAR: DTTN 282200Z VRB02KT 8000 NSC 09/07 Q1024

Čas: 23:12 (22:12 UTC)


TAF: chybějící

Stav a předpovědi počasí z více než 4 000 letišť (zprávy METAR a TAF).

Červené a žluté tečky na mapě představují dostupné meteorologické stanice.

Když kurzor umístíte na tečku, zobrazí se název stanice.

Pak kliknutím zobrazíte stav a předpověď počasí.

Chcete-li změnit mapu, kliknutím na zelené tlačítko se znaménkem +mapu přiblížíte, kliknutím na zelené tlačítko se znaménkem – mapu oddálíte a kliknutím na zelené šipky přejdete na sousední mapy.


METAR-TAF: